createdAt,value
2022-08-10T00:00:35.146Z,23.55
2022-08-10T00:03:35.138Z,23.55
2022-08-10T00:06:35.135Z,23.55
2022-08-10T00:09:49.956Z,23.55
2022-08-10T00:12:54.137Z,23.55
2022-08-10T00:15:44.266Z,23.55
2022-08-10T00:18:36.266Z,23.55
2022-08-10T00:21:35.133Z,23.5
2022-08-10T00:24:35.153Z,23.5
2022-08-10T00:27:50.231Z,23.5
2022-08-10T00:30:35.138Z,23.45
2022-08-10T00:33:35.146Z,23.45
2022-08-10T00:36:35.152Z,23.45
2022-08-10T00:39:36.264Z,23.45
2022-08-10T00:42:35.324Z,23.4
2022-08-10T00:45:35.145Z,23.35
2022-08-10T00:48:35.144Z,23.35
2022-08-10T00:51:40.544Z,23.35
2022-08-10T00:54:35.144Z,23.35
2022-08-10T00:57:35.158Z,23.35
2022-08-10T01:00:35.155Z,23.35
2022-08-10T01:04:36.020Z,23.3
2022-08-10T01:06:35.224Z,23.25
2022-08-10T01:09:35.168Z,23.25
2022-08-10T01:12:38.010Z,23.25
2022-08-10T01:15:35.165Z,23.2
2022-08-10T01:18:37.747Z,23.2
2022-08-10T01:21:35.163Z,23.15
2022-08-10T01:24:35.182Z,23.15
2022-08-10T01:27:35.184Z,23.15
2022-08-10T01:30:35.177Z,23.15
2022-08-10T01:33:57.930Z,23.1
2022-08-10T01:36:35.183Z,23.05
2022-08-10T01:39:35.223Z,23.05
2022-08-10T01:42:35.372Z,23
2022-08-10T01:45:44.618Z,23
2022-08-10T01:48:35.173Z,22.95
2022-08-10T01:51:35.172Z,22.95
2022-08-10T01:54:35.173Z,22.95
2022-08-10T01:57:35.175Z,22.9
2022-08-10T02:00:35.175Z,22.85
2022-08-10T02:03:35.195Z,22.85
2022-08-10T02:06:35.178Z,22.8
2022-08-10T02:09:35.179Z,22.75
2022-08-10T02:12:35.343Z,22.75
2022-08-10T02:15:35.178Z,22.75
2022-08-10T02:18:35.178Z,22.7
2022-08-10T02:21:35.179Z,22.65
2022-08-10T02:24:35.174Z,22.65
2022-08-10T02:27:35.172Z,22.65
2022-08-10T02:30:35.178Z,22.55
2022-08-10T02:33:36.863Z,22.55
2022-08-10T02:36:35.171Z,22.55
2022-08-10T02:39:35.287Z,22.55
2022-08-10T02:45:16.977Z,22.55
2022-08-10T02:45:35.458Z,22.5
2022-08-10T02:48:35.174Z,22.5
2022-08-10T02:52:05.813Z,22.5
2022-08-10T02:54:35.182Z,22.5
2022-08-10T02:57:35.193Z,22.45
2022-08-10T03:00:35.191Z,22.45
2022-08-10T03:03:35.197Z,22.45
2022-08-10T03:06:35.180Z,22.45
2022-08-10T03:09:35.185Z,22.45
2022-08-10T03:12:46.837Z,22.4
2022-08-10T03:15:35.189Z,22.4
2022-08-10T03:18:35.185Z,22.35
2022-08-10T03:21:35.192Z,22.35
2022-08-10T03:24:35.182Z,22.35
2022-08-10T03:27:35.184Z,22.3
2022-08-10T03:30:35.245Z,22.3
2022-08-10T03:33:35.187Z,22.25
2022-08-10T03:36:41.006Z,22.25
2022-08-10T03:39:35.212Z,22.25
2022-08-10T03:42:35.290Z,22.25
2022-08-10T03:45:48.530Z,22.2
2022-08-10T03:48:47.198Z,22.2
2022-08-10T03:51:35.190Z,22.2
2022-08-10T03:54:35.225Z,22.2
2022-08-10T03:57:35.183Z,22.2
2022-08-10T04:00:35.217Z,22.2
2022-08-10T04:03:35.185Z,22.2
2022-08-10T04:06:35.188Z,22.1
2022-08-10T04:09:55.859Z,22.1
2022-08-10T04:12:35.306Z,22.1
2022-08-10T04:15:35.185Z,22.1
2022-08-10T04:18:35.187Z,22.05
2022-08-10T04:21:35.187Z,22
2022-08-10T04:24:35.188Z,22
2022-08-10T04:27:35.190Z,22
2022-08-10T04:30:35.191Z,21.9
2022-08-10T04:33:35.196Z,21.9
2022-08-10T04:36:35.189Z,21.9
2022-08-10T04:39:35.265Z,21.9
2022-08-10T04:42:35.385Z,21.85
2022-08-10T04:45:48.030Z,21.8
2022-08-10T04:48:36.702Z,21.8
2022-08-10T04:51:35.190Z,21.8
2022-08-10T04:54:35.197Z,21.8
2022-08-10T04:57:35.198Z,21.8
2022-08-10T05:00:35.235Z,21.8
2022-08-10T05:03:35.194Z,21.75
2022-08-10T05:06:35.198Z,21.75
2022-08-10T05:10:00.799Z,21.75
2022-08-10T05:12:36.130Z,21.75
2022-08-10T05:15:35.193Z,21.75
2022-08-10T05:18:35.209Z,21.75
2022-08-10T05:21:52.275Z,21.75
2022-08-10T05:24:35.192Z,21.75
2022-08-10T05:27:35.222Z,21.75
2022-08-10T05:30:35.205Z,21.85
2022-08-10T05:33:35.206Z,21.85
2022-08-10T05:36:35.206Z,21.85
2022-08-10T05:39:35.236Z,21.85
2022-08-10T05:42:35.312Z,21.85
2022-08-10T05:46:16.010Z,21.85
2022-08-10T05:48:40.883Z,21.9
2022-08-10T05:51:35.210Z,21.9
2022-08-10T05:54:35.205Z,21.95
2022-08-10T05:57:35.199Z,21.95
2022-08-10T06:00:38.964Z,22
2022-08-10T06:03:35.198Z,22
2022-08-10T06:06:35.207Z,22
2022-08-10T06:09:35.207Z,22.1
2022-08-10T06:12:37.634Z,22.1
2022-08-10T06:15:51.063Z,22.1
2022-08-10T06:18:35.206Z,22.1
2022-08-10T06:21:35.201Z,22.1
2022-08-10T06:24:35.209Z,22.15
2022-08-10T06:27:35.205Z,22.15
2022-08-10T06:30:35.197Z,22.15
2022-08-10T06:33:35.205Z,22.15
2022-08-10T06:36:35.197Z,22.2
2022-08-10T06:39:36.044Z,22.2
2022-08-10T06:42:35.303Z,22.25
2022-08-10T06:45:35.208Z,22.25
2022-08-10T06:48:35.207Z,22.25
2022-08-10T06:51:35.209Z,22.3
2022-08-10T06:54:35.207Z,22.3
2022-08-10T06:57:35.208Z,22.35
2022-08-10T07:00:35.224Z,22.35
2022-08-10T07:03:35.206Z,22.4
2022-08-10T07:06:35.210Z,22.4
2022-08-10T07:09:35.209Z,22.45
2022-08-10T07:12:35.271Z,22.5
2022-08-10T07:15:59.097Z,22.55
2022-08-10T07:18:35.228Z,22.55
2022-08-10T07:21:35.210Z,22.65
2022-08-10T07:24:35.213Z,22.65
2022-08-10T07:27:39.056Z,22.7
2022-08-10T07:30:35.220Z,22.75
2022-08-10T07:33:35.219Z,22.8
2022-08-10T07:36:35.209Z,22.9
2022-08-10T07:39:58.596Z,22.9
2022-08-10T07:42:35.367Z,23.05
2022-08-10T07:45:35.215Z,23.1
2022-08-10T07:48:35.209Z,23.2
2022-08-10T07:51:35.216Z,23.3
2022-08-10T07:54:35.205Z,23.45
2022-08-10T07:57:39.686Z,23.6
2022-08-10T08:00:35.206Z,23.75
2022-08-10T08:03:35.219Z,24
2022-08-10T08:06:35.205Z,24.2
2022-08-10T08:09:35.215Z,24.35
2022-08-10T08:12:37.151Z,24.6
2022-08-10T08:16:16.052Z,24.7
2022-08-10T08:18:37.025Z,24.7
2022-08-10T08:24:03.102Z,25.2
2022-08-10T08:24:35.389Z,25.4
2022-08-10T08:27:35.211Z,25.5
2022-08-10T08:30:35.215Z,25.6
2022-08-10T08:33:41.461Z,25.85
2022-08-10T08:36:35.218Z,26
2022-08-10T08:39:35.233Z,26.1
2022-08-10T08:42:35.456Z,26.25
2022-08-10T08:45:35.214Z,26.45
2022-08-10T08:48:35.213Z,26.55
2022-08-10T08:52:06.508Z,26.9
2022-08-10T08:54:35.217Z,27.2
2022-08-10T08:57:49.904Z,27.45
2022-08-10T09:00:35.214Z,27.65
2022-08-10T09:03:35.212Z,27.8
2022-08-10T09:06:35.219Z,28.15
2022-08-10T09:09:35.208Z,28.25
2022-08-10T09:12:35.430Z,28.45
2022-08-10T09:15:40.184Z,28.65
2022-08-10T09:18:35.215Z,28.75
2022-08-10T09:21:35.215Z,28.8
2022-08-10T09:24:35.216Z,29
2022-08-10T09:27:35.647Z,29.2
2022-08-10T09:30:38.262Z,29.3
2022-08-10T09:36:18.604Z,29.4
2022-08-10T09:36:35.760Z,29.5
2022-08-10T09:40:06.492Z,29.6
2022-08-10T09:42:35.334Z,29.7
2022-08-10T09:45:35.209Z,29.75
2022-08-10T09:48:35.217Z,29.7
2022-08-10T09:51:45.177Z,29.65
2022-08-10T09:54:35.222Z,29.7
2022-08-10T09:57:43.645Z,29.8
2022-08-10T10:00:35.216Z,29.8
2022-08-10T10:03:35.270Z,29.75
2022-08-10T10:06:35.226Z,29.75
2022-08-10T10:09:35.217Z,29.65
2022-08-10T10:12:35.228Z,29.6
2022-08-10T10:15:35.231Z,29.45
2022-08-10T10:18:35.223Z,29.25
2022-08-10T10:21:54.883Z,29.25
2022-08-10T10:24:35.218Z,29.25
2022-08-10T10:27:35.271Z,29.2
2022-08-10T10:30:35.219Z,29.2
2022-08-10T10:33:35.292Z,29.15
2022-08-10T10:36:35.219Z,29.2
2022-08-10T10:39:35.250Z,29.25
2022-08-10T10:42:45.070Z,29.2
2022-08-10T10:45:37.883Z,29.25
2022-08-10T10:48:35.229Z,29.3
2022-08-10T10:51:35.225Z,29.25
2022-08-10T10:54:35.218Z,29.3
2022-08-10T10:57:59.656Z,29.3
2022-08-10T11:00:35.224Z,29.35
2022-08-10T11:03:35.268Z,29.4
2022-08-10T11:06:40.347Z,29.5
2022-08-10T11:10:04.444Z,29.5
2022-08-10T11:12:35.223Z,29.4
2022-08-10T11:15:35.222Z,29.4
2022-08-10T11:18:35.223Z,29.4
2022-08-10T11:21:35.223Z,29.4
2022-08-10T11:24:43.061Z,29.35
2022-08-10T11:27:35.348Z,29.35
2022-08-10T11:30:35.228Z,29.4
2022-08-10T11:33:46.964Z,29.4
2022-08-10T11:36:35.222Z,29.5
2022-08-10T11:39:35.276Z,29.6
2022-08-10T11:42:36.274Z,29.6
2022-08-10T11:45:35.225Z,29.6
2022-08-10T11:48:52.574Z,29.65
2022-08-10T11:51:35.227Z,29.65
2022-08-10T11:54:35.231Z,29.6
2022-08-10T11:57:53.742Z,29.6
2022-08-10T12:00:35.225Z,29.6
2022-08-10T12:03:35.272Z,29.65
2022-08-10T12:06:54.574Z,29.65
2022-08-10T12:10:08.048Z,29.65
2022-08-10T12:12:35.344Z,29.65
2022-08-10T12:15:35.231Z,29.6
2022-08-10T12:18:35.229Z,29.55
2022-08-10T12:24:35.231Z,29.55
2022-08-10T12:27:35.228Z,29.55
2022-08-10T12:30:35.228Z,29.55
2022-08-10T12:34:01.668Z,29.55
2022-08-10T12:36:35.223Z,29.6
2022-08-10T12:39:35.251Z,29.6
2022-08-10T12:42:37.223Z,29.6
2022-08-10T12:45:35.231Z,29.55
2022-08-10T12:48:35.233Z,29.5
2022-08-10T12:51:35.239Z,29.5
2022-08-10T12:54:35.243Z,29.55
2022-08-10T12:57:35.231Z,29.5
2022-08-10T13:00:35.248Z,29.4
2022-08-10T13:04:20.252Z,29.3
2022-08-10T13:06:35.232Z,29.25
2022-08-10T13:09:55.785Z,29.25
2022-08-10T13:12:44.739Z,29.25
2022-08-10T13:15:46.151Z,29.25
2022-08-10T13:18:35.230Z,29.3
2022-08-10T13:21:35.241Z,29.3
2022-08-10T13:24:35.235Z,29.25
2022-08-10T13:28:00.186Z,29.3
2022-08-10T13:30:37.489Z,29.3
2022-08-10T13:34:03.969Z,29.3
2022-08-10T13:36:35.236Z,29.25
2022-08-10T13:39:57.581Z,29.2
2022-08-10T13:42:35.255Z,29.2
2022-08-10T13:45:35.234Z,29.15
2022-08-10T13:48:35.246Z,29.2
2022-08-10T13:51:53.497Z,29.05
2022-08-10T13:54:35.239Z,29
2022-08-10T13:57:35.237Z,28.95
2022-08-10T14:00:38.140Z,28.95
2022-08-10T14:03:35.233Z,28.95
2022-08-10T14:06:35.233Z,28.9
2022-08-10T14:09:35.230Z,28.9
2022-08-10T14:12:35.268Z,28.85
2022-08-10T14:15:35.241Z,28.8
2022-08-10T14:18:35.231Z,28.8
2022-08-10T14:21:35.246Z,28.85
2022-08-10T14:24:35.255Z,28.8
2022-08-10T14:28:01.693Z,28.8
2022-08-10T14:30:35.241Z,28.8
2022-08-10T14:33:35.237Z,28.75
2022-08-10T14:36:35.236Z,28.75
2022-08-10T14:39:35.270Z,28.75
2022-08-10T14:42:35.236Z,28.75
2022-08-10T14:45:35.248Z,28.7
2022-08-10T14:48:35.233Z,28.7
2022-08-10T14:51:44.016Z,28.7
2022-08-10T14:54:35.234Z,28.7
2022-08-10T14:58:17.552Z,28.65
2022-08-10T15:00:37.797Z,28.65
2022-08-10T15:03:59.637Z,28.65
2022-08-10T15:06:35.238Z,28.6
2022-08-10T15:09:59.371Z,28.6
2022-08-10T15:12:35.244Z,28.6
2022-08-10T15:15:41.687Z,28.55
2022-08-10T15:18:35.246Z,28.55
2022-08-10T15:21:35.748Z,28.5
2022-08-10T15:24:35.239Z,28.5
2022-08-10T15:27:54.120Z,28.5
2022-08-10T15:30:35.249Z,28.5
2022-08-10T15:33:57.220Z,28.5
2022-08-10T15:36:35.248Z,28.5
2022-08-10T15:39:47.769Z,28.45
2022-08-10T15:42:35.246Z,28.45
2022-08-10T15:45:35.239Z,28.4
2022-08-10T15:48:35.240Z,28.4
2022-08-10T15:51:52.713Z,28.35
2022-08-10T15:54:35.236Z,28.35
2022-08-10T15:57:35.454Z,28.35
2022-08-10T16:00:35.241Z,28.35
2022-08-10T16:03:35.237Z,28.3
2022-08-10T16:06:35.229Z,28.3
2022-08-10T16:10:11.260Z,28.3
2022-08-10T16:12:35.243Z,28.3
2022-08-10T16:15:35.243Z,28.3
2022-08-10T16:18:35.250Z,28.25
2022-08-10T16:21:35.244Z,28.25
2022-08-10T16:24:35.238Z,28.3
2022-08-10T16:27:35.357Z,28.3
2022-08-10T16:30:35.248Z,28.3
2022-08-10T16:33:52.666Z,28.3
2022-08-10T16:36:35.250Z,28.3
2022-08-10T16:39:57.352Z,28.2
2022-08-10T16:42:35.242Z,28.2
2022-08-10T16:45:35.258Z,28.2
2022-08-10T16:48:49.296Z,28.2
2022-08-10T16:51:35.253Z,28.2
2022-08-10T16:54:35.250Z,28.15
2022-08-10T16:57:35.334Z,28.15
2022-08-10T17:00:35.252Z,28.15
2022-08-10T17:04:05.934Z,28.2
2022-08-10T17:06:35.253Z,28.15
2022-08-10T17:09:35.255Z,28.15
2022-08-10T17:12:35.240Z,28.15
2022-08-10T17:15:35.256Z,28.05
2022-08-10T17:18:35.250Z,28.05
2022-08-10T17:21:35.254Z,28.05
2022-08-10T17:24:35.254Z,28.05
2022-08-10T17:28:03.653Z,28
2022-08-10T17:30:36.892Z,28.05
2022-08-10T17:33:35.251Z,28
2022-08-10T17:36:35.246Z,28
2022-08-10T17:39:35.331Z,27.95
2022-08-10T17:42:35.334Z,27.9
2022-08-10T17:45:46.191Z,27.9
2022-08-10T17:48:35.246Z,27.9
2022-08-10T17:51:35.244Z,27.85
2022-08-10T17:54:35.249Z,27.85
2022-08-10T17:57:35.369Z,27.85
2022-08-10T18:00:35.248Z,27.85
2022-08-10T18:03:35.252Z,27.85
2022-08-10T18:06:35.252Z,27.8
2022-08-10T18:09:35.249Z,27.75
2022-08-10T18:12:38.847Z,27.75
2022-08-10T18:15:35.250Z,27.75
2022-08-10T18:18:35.251Z,27.75
2022-08-10T18:21:35.250Z,27.65
2022-08-10T18:24:35.249Z,27.65
2022-08-10T18:27:35.244Z,27.6
2022-08-10T18:30:36.042Z,27.55
2022-08-10T18:33:35.255Z,27.55
2022-08-10T18:36:35.249Z,27.5
2022-08-10T18:39:35.337Z,27.5
2022-08-10T18:42:35.245Z,27.4
2022-08-10T18:45:35.250Z,27.4
2022-08-10T18:48:35.246Z,27.4
2022-08-10T18:51:46.477Z,27.3
2022-08-10T18:54:40.001Z,27.3
2022-08-10T18:57:35.298Z,27.25
2022-08-10T19:00:35.264Z,27.2
2022-08-10T19:03:35.249Z,27.15
2022-08-10T19:06:35.247Z,27.1
2022-08-10T19:09:41.498Z,27
2022-08-10T19:12:35.249Z,26.95
2022-08-10T19:15:35.894Z,26.9
2022-08-10T19:18:35.269Z,26.9
2022-08-10T19:21:35.252Z,26.8
2022-08-10T19:24:35.248Z,26.75
2022-08-10T19:27:35.286Z,26.7
2022-08-10T19:30:35.250Z,26.7
2022-08-10T19:33:35.257Z,26.6
2022-08-10T19:36:35.260Z,26.6
2022-08-10T19:39:35.346Z,26.6
2022-08-10T19:42:35.268Z,26.5
2022-08-10T19:45:55.822Z,26.5
2022-08-10T19:48:35.270Z,26.5
2022-08-10T19:51:35.262Z,26.4
2022-08-10T19:54:35.256Z,26.4
2022-08-10T19:57:35.417Z,26.35
2022-08-10T20:00:35.269Z,26.3
2022-08-10T20:03:35.273Z,26.3
2022-08-10T20:06:35.282Z,26.3
2022-08-10T20:09:35.269Z,26.25
2022-08-10T20:12:35.275Z,26.15
2022-08-10T20:15:41.694Z,26.1
2022-08-10T20:18:35.296Z,26.1
2022-08-10T20:21:35.277Z,26
2022-08-10T20:24:35.274Z,26
2022-08-10T20:27:42.026Z,25.9
2022-08-10T20:30:35.276Z,25.85
2022-08-10T20:33:35.280Z,25.8
2022-08-10T20:36:35.290Z,25.8
2022-08-10T20:39:35.337Z,25.8
2022-08-10T20:42:35.345Z,25.7
2022-08-10T20:45:52.066Z,25.7
2022-08-10T20:48:35.295Z,25.65
2022-08-10T20:51:57.222Z,25.65
2022-08-10T20:54:35.283Z,25.6
2022-08-10T20:57:56.024Z,25.55
2022-08-10T21:00:35.282Z,25.5
2022-08-10T21:03:35.285Z,25.4
2022-08-10T21:06:42.486Z,25.4
2022-08-10T21:09:35.284Z,25.4
2022-08-10T21:12:35.288Z,25.3
2022-08-10T21:15:41.754Z,25.25
2022-08-10T21:18:35.285Z,25.25
2022-08-10T21:21:41.504Z,25.15
2022-08-10T21:24:35.283Z,25.1
2022-08-10T21:27:35.295Z,25.1
2022-08-10T21:30:35.284Z,25
2022-08-10T21:33:35.297Z,24.95
2022-08-10T21:36:35.289Z,24.9
2022-08-10T21:39:41.855Z,24.85
2022-08-10T21:42:35.286Z,24.85
2022-08-10T21:45:54.856Z,24.85
2022-08-10T21:48:35.297Z,24.75
2022-08-10T21:52:00.807Z,24.7
2022-08-10T21:54:35.290Z,24.65
2022-08-10T21:57:43.318Z,24.65
2022-08-10T22:00:35.385Z,24.6
2022-08-10T22:03:38.182Z,24.55
2022-08-10T22:06:35.292Z,24.55
2022-08-10T22:09:42.634Z,24.45
2022-08-10T22:12:35.293Z,24.45
2022-08-10T22:15:42.449Z,24.45
2022-08-10T22:18:35.290Z,24.4
2022-08-10T22:21:37.769Z,24.4
2022-08-10T22:24:35.290Z,24.3
2022-08-10T22:27:46.055Z,24.3
2022-08-10T22:30:35.290Z,24.3
2022-08-10T22:33:35.304Z,24.25
2022-08-10T22:36:35.303Z,24.2
2022-08-10T22:40:07.502Z,24.2
2022-08-10T22:42:58.569Z,24.2
2022-08-10T22:45:35.297Z,24.2
2022-08-10T22:48:35.302Z,24.15
2022-08-10T22:51:35.301Z,24.15
2022-08-10T22:54:35.301Z,24.1
2022-08-10T22:57:35.296Z,24.1
2022-08-10T23:00:35.297Z,24.1
2022-08-10T23:03:35.623Z,24.1
2022-08-10T23:06:35.302Z,24.05
2022-08-10T23:09:35.308Z,24.05
2022-08-10T23:12:35.430Z,24
2022-08-10T23:15:35.303Z,23.95
2022-08-10T23:18:35.302Z,23.95
2022-08-10T23:21:47.879Z,23.95
2022-08-10T23:24:35.301Z,23.9
2022-08-10T23:27:37.368Z,23.85
2022-08-10T23:30:35.311Z,23.85
2022-08-10T23:33:37.944Z,23.85
2022-08-10T23:36:35.601Z,23.75
2022-08-10T23:39:35.328Z,23.75
2022-08-10T23:42:35.305Z,23.75
2022-08-10T23:45:52.316Z,23.75
2022-08-10T23:48:35.304Z,23.7
2022-08-10T23:51:38.597Z,23.65
2022-08-10T23:54:35.315Z,23.65
2022-08-10T23:57:35.304Z,23.6
